Time;durP1;ratioP1;P1;durP2;ratioP2;P2;SDS_P1;SDS_P2;PMS_P1;PMS_P2;Temp;Humidity;BMP_temperature;BMP_pressure;BME280_temperature;BME280_humidity;BME280_pressure;Samples;Min_cycle;Max_cycle;Signal;HPM_P1;HPM_P2
2022/03/14 00:01:07;;;;;;;5.03;2.92;;;20.40;46.80;;;;;;4972923;28;20122;-60
2022/03/14 00:03:41;;;;;;;5.35;3.05;;;20.40;46.70;;;;;;4973630;28;20078;-60
2022/03/14 00:06:08;;;;;;;5.80;3.10;;;20.40;46.70;;;;;;4973650;28;20125;-60
2022/03/14 00:08:33;;;;;;;4.93;2.75;;;20.40;46.70;;;;;;4973023;28;20691;-60
2022/03/14 00:10:59;;;;;;;5.38;3.35;;;20.40;46.60;;;;;;4972414;28;20043;-60
2022/03/14 00:13:25;;;;;;;5.00;2.90;;;20.40;46.70;;;;;;4973578;28;20043;-60
2022/03/14 00:15:50;;;;;;;6.00;3.15;;;20.40;46.60;;;;;;4971558;28;20050;-60
2022/03/14 00:18:18;;;;;;;7.85;2.70;;;20.40;46.70;;;;;;4972353;28;20078;-60
2022/03/14 00:20:46;;;;;;;6.55;3.17;;;20.30;46.60;;;;;;4973729;28;20101;-60
2022/03/14 00:23:12;;;;;;;6.70;3.05;;;20.30;46.60;;;;;;4973155;28;20081;-60
2022/03/14 00:25:38;;;;;;;6.28;3.00;;;20.30;46.60;;;;;;4973577;28;20426;-60
2022/03/14 00:28:04;;;;;;;5.30;2.97;;;20.30;46.60;;;;;;4972121;28;20443;-60
2022/03/14 00:30:30;;;;;;;4.95;2.80;;;20.30;46.60;;;;;;4973654;28;20043;-60
2022/03/14 00:32:56;;;;;;;4.55;2.88;;;20.30;46.60;;;;;;4973490;28;20130;-60
2022/03/14 00:35:21;;;;;;;5.63;2.85;;;20.30;46.60;;;;;;4972333;28;20138;-60
2022/03/14 00:37:47;;;;;;;6.22;3.28;;;20.30;46.60;;;;;;4973318;28;20074;-60
2022/03/14 00:40:13;;;;;;;6.40;2.80;;;20.30;46.60;;;;;;4972746;28;20512;-60
2022/03/14 00:42:39;;;;;;;5.28;2.90;;;20.30;46.60;;;;;;4972954;28;20134;-60
2022/03/14 00:45:05;;;;;;;5.90;3.17;;;20.30;46.60;;;;;;4973240;28;20039;-60
2022/03/14 00:47:31;;;;;;;6.35;2.92;;;20.20;46.50;;;;;;4973387;28;20495;-60
2022/03/14 00:49:56;;;;;;;5.07;3.13;;;20.20;46.50;;;;;;4972743;28;20049;-60
2022/03/14 00:52:22;;;;;;;5.38;2.90;;;20.20;46.50;;;;;;4973109;28;20043;-60
2022/03/14 00:54:47;;;;;;;6.07;2.85;;;20.20;46.50;;;;;;4973296;28;20130;-60
2022/03/14 00:57:16;;;;;;;5.90;2.83;;;20.20;46.50;;;;;;4975952;28;20077;-60
2022/03/14 00:59:42;;;;;;;6.03;2.90;;;20.20;46.50;;;;;;4977366;28;20082;-60
2022/03/14 01:02:08;;;;;;;4.82;2.67;;;20.20;46.50;;;;;;4976604;28;20093;-60
2022/03/14 01:04:33;;;;;;;4.85;2.80;;;20.20;46.50;;;;;;4976029;28;20450;-60
2022/03/14 01:07:02;;;;;;;4.85;2.92;;;20.20;46.50;;;;;;4976918;28;20043;-60
2022/03/14 01:09:30;;;;;;;4.53;2.78;;;20.20;46.50;;;;;;4976763;28;20050;-60
2022/03/14 01:11:56;;;;;;;;;;;20.20;46.60;;;;;;4976466;28;20047;-60
2022/03/14 01:14:22;;;;;;;5.90;3.17;;;20.20;46.40;;;;;;4990884;28;19934;-60
2022/03/14 01:16:48;;;;;;;4.72;2.78;;;20.10;46.60;;;;;;4996282;28;20034;-60
2022/03/14 01:19:14;;;;;;;4.20;2.53;;;20.10;46.50;;;;;;4995167;28;20046;-60
2022/03/14 01:21:39;;;;;;;5.93;3.15;;;20.10;46.50;;;;;;4996194;28;20045;-60
2022/03/14 01:24:05;;;;;;;5.05;2.70;;;20.10;46.50;;;;;;4995100;28;20430;-60
2022/03/14 01:26:33;;;;;;;6.13;2.97;;;20.10;46.50;;;;;;4996068;28;20125;-60
2022/03/14 01:28:59;;;;;;;4.40;2.70;;;20.10;46.50;;;;;;4996095;28;20046;-60
2022/03/14 01:31:25;;;;;;;5.78;2.65;;;20.10;46.50;;;;;;4994830;28;20049;-60
2022/03/14 01:33:50;;;;;;;5.53;2.90;;;20.10;46.50;;;;;;4995728;28;20129;-60
2022/03/14 01:36:17;;;;;;;4.97;2.75;;;20.10;46.50;;;;;;4995259;28;20152;-60
2022/03/14 01:38:43;;;;;;;6.13;2.78;;;20.10;46.50;;;;;;4994927;28;20100;-60
2022/03/14 01:41:10;;;;;;;4.35;2.75;;;20.10;46.50;;;;;;4995298;28;20050;-60
2022/03/14 01:43:35;;;;;;;5.30;2.60;;;20.10;46.50;;;;;;4995464;28;20381;-60
2022/03/14 01:46:01;;;;;;;5.40;2.80;;;20.10;46.50;;;;;;4995159;28;20534;-60
2022/03/14 01:48:27;;;;;;;4.78;2.92;;;20.10;46.50;;;;;;4995329;28;20054;-60
2022/03/14 01:50:53;;;;;;;4.43;2.70;;;20.10;46.50;;;;;;4995565;28;20046;-60
2022/03/14 01:53:19;;;;;;;5.05;3.03;;;20.00;46.40;;;;;;4994484;28;20482;-60
2022/03/14 01:55:47;;;;;;;7.00;2.90;;;20.10;46.50;;;;;;4995673;28;20042;-60
2022/03/14 01:58:14;;;;;;;5.38;2.60;;;20.10;46.50;;;;;;4994128;28;20050;-60
2022/03/14 02:00:41;;;;;;;4.80;3.00;;;20.00;46.40;;;;;;4994531;28;20050;-60
2022/03/14 02:03:06;;;;;;;5.60;2.80;;;20.00;46.50;;;;;;4995191;28;20130;-60
2022/03/14 02:05:37;;;;;;;4.60;3.25;;;20.00;46.40;;;;;;4995220;28;20121;-59
2022/03/14 02:08:05;;;;;;;6.05;2.70;;;20.00;46.40;;;;;;4994148;28;20046;-60
2022/03/14 02:10:31;;;;;;;4.28;2.50;;;20.00;46.40;;;;;;4994031;28;20051;-60
2022/03/14 02:12:57;;;;;;;3.90;2.60;;;20.00;46.40;;;;;;4995110;28;20050;-59
2022/03/14 02:15:22;;;;;;;4.78;2.53;;;20.00;46.40;;;;;;4994060;28;20045;-60
2022/03/14 02:17:48;;;;;;;3.55;2.42;;;20.00;46.50;;;;;;4994859;28;20100;-60
2022/03/14 02:20:13;;;;;;;4.30;2.80;;;20.00;46.60;;;;;;4994725;28;20064;-60
2022/03/14 02:22:39;;;;;;;3.90;2.70;;;19.90;46.40;;;;;;4976788;28;20410;-60
2022/03/14 02:25:09;;;;;;;4.78;2.63;;;20.00;46.50;;;;;;4994797;28;20054;-60
2022/03/14 02:27:35;;;;;;;4.03;2.47;;;20.00;46.50;;;;;;4993907;28;20414;-60
2022/03/14 02:30:00;;;;;;;4.30;2.65;;;19.90;46.40;;;;;;4995064;28;20481;-60
2022/03/14 02:32:26;;;;;;;4.00;2.30;;;19.90;46.40;;;;;;4994082;28;20327;-60
2022/03/14 02:34:51;;;;;;;4.78;2.50;;;19.90;46.40;;;;;;4993869;28;20503;-60
2022/03/14 02:37:17;;;;;;;3.80;2.63;;;19.90;46.40;;;;;;4994343;28;20038;-60
2022/03/14 02:39:42;;;;;;;3.85;2.20;;;20.00;46.50;;;;;;4994521;28;20089;-60
2022/03/14 02:42:08;;;;;;;3.38;2.30;;;20.00;46.40;;;;;;4993445;28;20097;-60
2022/03/14 02:44:34;;;;;;;4.60;2.35;;;19.90;46.40;;;;;;4994419;28;20515;-60
2022/03/14 02:47:02;;;;;;;4.90;2.97;;;20.00;46.50;;;;;;4994631;28;20056;-60
2022/03/14 02:49:27;;;;;;;4.57;2.67;;;20.00;46.40;;;;;;4993400;28;20504;-60
2022/03/14 02:51:53;;;;;;;3.53;2.30;;;20.00;46.40;;;;;;4994379;28;20133;-60
2022/03/14 02:54:19;;;;;;;4.53;2.45;;;20.00;46.40;;;;;;4994022;28;20046;-60
2022/03/14 02:56:45;;;;;;;3.90;2.33;;;20.00;46.40;;;;;;4993457;28;20050;-60
2022/03/14 02:59:11;;;;;;;4.57;2.72;;;20.00;46.50;;;;;;4994122;28;20049;-60
2022/03/14 03:01:36;;;;;;;3.70;2.05;;;20.00;46.40;;;;;;4993071;28;20603;-59
2022/03/14 03:04:02;;;;;;;4.35;2.45;;;20.00;46.40;;;;;;4993347;28;20034;-59
2022/03/14 03:06:27;;;;;;;3.13;2.30;;;20.00;46.40;;;;;;4992112;28;20068;-59
2022/03/14 03:08:53;;;;;;;3.75;2.20;;;20.00;46.40;;;;;;4992976;28;20068;-60
2022/03/14 03:11:20;;;;;;;3.25;1.83;;;20.00;46.40;;;;;;4992702;28;20124;-60
2022/03/14 03:13:47;;;;;;;4.78;2.50;;;20.00;46.40;;;;;;4993947;28;20053;-60
2022/03/14 03:16:14;;;;;;;3.00;1.90;;;20.00;46.40;;;;;;4993455;28;20057;-60
2022/03/14 03:18:40;;;;;;;3.30;2.08;;;20.10;46.40;;;;;;4992483;28;20071;-60
2022/03/14 03:21:05;;;;;;;3.17;1.90;;;20.10;46.40;;;;;;4993654;28;20049;-60
2022/03/14 03:23:33;;;;;;;4.38;2.38;;;20.10;46.40;;;;;;4993588;28;20055;-59
2022/03/14 03:25:58;;;;;;;4.07;2.60;;;20.10;46.40;;;;;;4993020;28;20100;-60
2022/03/14 03:28:24;;;;;;;5.13;2.42;;;20.10;46.40;;;;;;4993223;28;20038;-60
2022/03/14 03:30:49;;;;;;;3.33;2.00;;;20.20;46.50;;;;;;4992864;28;20042;-60
2022/03/14 03:33:15;;;;;;;3.40;2.08;;;20.10;46.40;;;;;;4993208;28;20133;-59
2022/03/14 03:35:40;;;;;;;3.83;2.10;;;20.10;46.40;;;;;;4993796;28;20046;-60
2022/03/14 03:38:06;;;;;;;4.18;1.95;;;20.20;46.40;;;;;;4992378;28;20380;-60
2022/03/14 03:40:32;;;;;;;3.13;2.03;;;20.20;46.40;;;;;;4993552;28;20045;-61
2022/03/14 03:42:57;;;;;;;3.35;2.10;;;20.20;46.40;;;;;;4993543;28;20066;-59
2022/03/14 03:45:23;;;;;;;3.65;1.98;;;20.20;46.40;;;;;;4991126;28;20053;-60
2022/03/14 03:47:48;;;;;;;4.22;2.33;;;20.20;46.40;;;;;;4993457;28;20039;-60
2022/03/14 03:50:14;;;;;;;3.00;2.00;;;20.20;46.40;;;;;;4993021;28;20486;-59
2022/03/14 03:52:40;;;;;;;4.10;2.00;;;20.20;46.40;;;;;;4992653;28;20069;-59
2022/03/14 03:55:05;;;;;;;3.10;1.83;;;20.20;46.40;;;;;;4992822;28;20049;-59
2022/03/14 03:57:31;;;;;;;3.75;2.30;;;20.20;46.40;;;;;;4993663;28;20050;-59
2022/03/14 03:59:57;;;;;;;3.05;1.70;;;20.20;46.40;;;;;;4992581;28;20050;-60
2022/03/14 04:02:23;;;;;;;3.35;2.10;;;20.20;46.40;;;;;;4991470;28;20134;-60
2022/03/14 04:04:49;;;;;;;3.22;1.80;;;20.30;46.40;;;;;;4993099;28;20500;-60
2022/03/14 04:07:23;;;;;;;4.28;1.85;;;20.30;46.40;;;;;;4992327;28;20038;-60
2022/03/14 04:09:55;;;;;;;3.83;1.85;;;20.30;46.50;;;;;;4993259;28;20043;-60
2022/03/14 04:12:24;;;;;;;4.10;1.95;;;20.30;46.40;;;;;;4991171;28;20114;-59
2022/03/14 04:14:51;;;;;;;5.20;2.17;;;20.30;46.40;;;;;;4992434;28;20050;-59
2022/03/14 04:17:17;;;;;;;3.83;1.70;;;20.30;46.40;;;;;;4992736;28;20046;-59
2022/03/14 04:19:43;;;;;;;3.17;1.80;;;20.30;46.40;;;;;;4992925;28;20057;-59
2022/03/14 04:22:09;;;;;;;3.22;1.80;;;20.30;46.40;;;;;;4991828;28;20062;-59
2022/03/14 04:24:36;;;;;;;2.90;1.92;;;20.30;46.40;;;;;;4992994;28;20162;-59
2022/03/14 04:27:02;;;;;;;2.75;1.73;;;20.30;46.40;;;;;;4992251;28;20053;-59
2022/03/14 04:29:28;;;;;;;3.17;1.70;;;20.30;46.40;;;;;;4994013;28;20042;-60
2022/03/14 04:31:54;;;;;;;2.78;1.77;;;20.30;46.50;;;;;;4996978;28;20034;-59
2022/03/14 04:34:20;;;;;;;2.80;1.60;;;20.30;46.40;;;;;;4995864;28;20056;-59
2022/03/14 04:36:50;;;;;;;2.95;1.90;;;20.40;46.50;;;;;;4996880;28;20042;-59
2022/03/14 04:39:20;;;;;;;3.53;1.65;;;20.40;46.60;;;;;;4996208;28;20058;-59
2022/03/14 04:41:46;;;;;;;3.15;1.50;;;20.40;46.50;;;;;;4996097;28;20049;-59
2022/03/14 04:44:11;;;;;;;2.33;1.30;;;20.40;46.50;;;;;;4996422;28;20046;-59
2022/03/14 04:46:37;;;;;;;3.45;1.80;;;20.40;46.50;;;;;;4995297;28;20137;-60
2022/03/14 04:49:04;;;;;;;2.60;1.55;;;20.40;46.50;;;;;;4995681;28;20046;-60
2022/03/14 04:51:31;;;;;;;2.20;1.40;;;20.40;46.50;;;;;;4996737;28;20050;-59
2022/03/14 04:53:56;;;;;;;2.30;1.50;;;20.40;46.50;;;;;;4996651;28;20052;-60
2022/03/14 04:56:22;;;;;;;3.60;1.80;;;20.40;46.50;;;;;;4995379;28;20448;-59
2022/03/14 04:58:47;;;;;;;3.05;1.52;;;20.40;46.50;;;;;;4996716;28;20071;-59
2022/03/14 05:01:13;;;;;;;2.47;1.40;;;20.40;46.50;;;;;;4987157;28;20070;-59
2022/03/14 05:03:38;;;;;;;3.40;1.83;;;20.40;46.50;;;;;;4976024;28;20050;-60
2022/03/14 05:06:04;;;;;;;2.60;1.40;;;20.40;46.50;;;;;;4974936;28;20106;-60
2022/03/14 05:08:29;;;;;;;2.63;1.75;;;20.40;46.50;;;;;;4975503;28;20554;-60
2022/03/14 05:10:57;;;;;;;1.92;1.40;;;20.40;46.50;;;;;;4975461;28;20043;-60
2022/03/14 05:13:23;;;;;;;3.25;1.60;;;20.50;46.60;;;;;;4974988;28;20490;-59
2022/03/14 05:15:48;;;;;;;2.53;1.50;;;20.40;46.50;;;;;;4976943;28;20093;-59
2022/03/14 05:18:14;;;;;;;2.20;1.40;;;20.40;46.50;;;;;;4975935;28;20093;-59
2022/03/14 05:20:40;;;;;;;2.63;1.73;;;20.40;46.60;;;;;;4976533;28;20050;-60
2022/03/14 05:23:06;;;;;;;2.38;1.40;;;20.50;46.60;;;;;;4976366;28;20390;-60
2022/03/14 05:25:32;;;;;;;2.53;1.30;;;20.40;46.60;;;;;;4974405;28;20053;-60
2022/03/14 05:27:57;;;;;;;3.47;1.25;;;20.40;46.60;;;;;;4976298;28;20043;-59
2022/03/14 05:30:23;;;;;;;3.30;1.67;;;20.50;46.60;;;;;;4975384;28;20109;-59
2022/03/14 05:32:49;;;;;;;1.88;1.30;;;20.50;46.60;;;;;;4976461;28;20536;-59
2022/03/14 05:35:15;;;;;;;2.35;1.40;;;20.50;46.60;;;;;;4976292;28;20106;-59
2022/03/14 05:37:42;;;;;;;2.03;1.23;;;20.50;46.60;;;;;;4975389;28;20455;-60
2022/03/14 05:40:08;;;;;;;2.97;1.75;;;20.50;46.60;;;;;;4975623;28;20130;-60
2022/03/14 05:42:33;;;;;;;2.97;1.50;;;20.50;46.60;;;;;;4975333;28;20130;-60
2022/03/14 05:44:59;;;;;;;2.67;1.45;;;20.50;46.60;;;;;;4975534;28;20122;-60
2022/03/14 05:47:24;;;;;;;2.10;1.27;;;20.50;46.60;;;;;;4976004;28;20109;-59
2022/03/14 05:49:50;;;;;;;2.28;1.20;;;20.50;46.60;;;;;;4976094;28;20043;-60
2022/03/14 05:52:18;;;;;;;1.77;1.25;;;20.50;46.60;;;;;;4974890;28;20046;-60
2022/03/14 05:54:43;;;;;;;1.88;1.30;;;20.50;46.60;;;;;;4975938;28;20047;-59
2022/03/14 05:57:09;;;;;;;2.03;1.23;;;20.50;46.70;;;;;;4975680;28;20130;-60
2022/03/14 05:59:34;;;;;;;1.85;1.20;;;20.50;46.60;;;;;;4975009;28;20475;-60
2022/03/14 06:02:00;;;;;;;2.08;1.20;;;20.50;46.60;;;;;;4975877;28;20467;-60
2022/03/14 06:04:26;;;;;;;2.65;1.30;;;20.50;46.70;;;;;;4975553;28;20050;-60
2022/03/14 06:06:52;;;;;;;1.75;1.00;;;20.50;46.60;;;;;;4975208;28;20148;-60
2022/03/14 06:09:18;;;;;;;1.92;1.20;;;20.50;47.40;;;;;;4975188;28;20082;-60
2022/03/14 06:11:43;;;;;;;2.20;1.50;;;20.50;46.60;;;;;;4975451;28;20054;-60
2022/03/14 06:14:11;;;;;;;2.03;1.30;;;20.50;46.70;;;;;;4974650;28;20035;-60
2022/03/14 06:16:36;;;;;;;1.95;1.05;;;20.50;46.70;;;;;;4974728;28;20451;-60
2022/03/14 06:19:02;;;;;;;1.70;1.25;;;20.50;46.60;;;;;;4975923;28;20078;-60
2022/03/14 06:21:28;;;;;;;2.33;1.30;;;20.50;46.70;;;;;;4975008;28;20057;-60
2022/03/14 06:23:53;;;;;;;2.35;1.38;;;20.50;46.70;;;;;;4975663;28;20035;-60
2022/03/14 06:26:19;;;;;;;2.13;1.38;;;20.50;46.60;;;;;;4974975;28;20521;-60
2022/03/14 06:28:44;;;;;;;1.70;1.00;;;20.50;46.70;;;;;;4974545;28;20051;-60
2022/03/14 06:31:10;;;;;;;1.95;1.20;;;20.50;46.70;;;;;;4975179;28;20043;-60
2022/03/14 06:33:36;;;;;;;2.20;1.20;;;20.60;46.80;;;;;;4974668;28;20047;-60
2022/03/14 06:36:02;;;;;;;2.25;1.40;;;20.60;46.70;;;;;;4975267;28;20478;-60
2022/03/14 06:38:27;;;;;;;1.77;1.08;;;20.50;46.70;;;;;;4974722;28;20065;-60
2022/03/14 06:40:56;;;;;;;1.65;1.10;;;20.60;46.70;;;;;;4974467;28;20077;-60
2022/03/14 06:43:22;;;;;;;1.90;1.20;;;20.60;46.70;;;;;;4974658;28;20062;-60
2022/03/14 06:45:48;;;;;;;1.70;1.02;;;20.60;46.70;;;;;;4975087;28;20507;-60
2022/03/14 06:48:14;;;;;;;2.00;1.10;;;20.60;46.70;;;;;;4973985;28;20388;-60
2022/03/14 06:50:39;;;;;;;1.77;0.93;;;20.60;46.70;;;;;;4975038;28;20041;-60
2022/03/14 06:53:05;;;;;;;3.15;1.10;;;20.60;46.70;;;;;;4974301;28;20137;-60
2022/03/14 06:55:31;;;;;;;2.90;0.90;;;20.60;46.80;;;;;;4974129;28;20059;-59
2022/03/14 06:57:57;;;;;;;1.30;0.88;;;20.60;46.80;;;;;;4991227;28;20041;-60
2022/03/14 07:00:23;;;;;;;3.25;1.20;;;20.60;46.80;;;;;;4994241;28;20398;-60
2022/03/14 07:02:49;;;;;;;3.13;0.93;;;20.60;46.80;;;;;;4992190;28;20053;-60
2022/03/14 07:05:20;;;;;;;2.40;1.20;;;20.70;46.80;;;;;;4993950;28;20042;-60
2022/03/14 07:07:46;;;;;;;2.88;1.15;;;20.70;46.80;;;;;;4994340;28;20053;-61
2022/03/14 07:10:13;;;;;;;2.22;0.95;;;20.70;46.80;;;;;;4993369;28;20050;-60
2022/03/14 07:12:44;;;;;;;5.88;1.30;;;20.70;46.90;;;;;;4994022;28;20046;-61
2022/03/14 07:15:11;;;;;;;2.50;1.23;;;20.70;46.90;;;;;;4993704;28;20089;-61
2022/03/14 07:17:36;;;;;;;3.22;1.42;;;20.70;46.90;;;;;;4993228;28;20046;-61
2022/03/14 07:20:02;;;;;;;1.70;0.90;;;20.70;46.90;;;;;;4993878;28;20478;-61
2022/03/14 07:22:32;;;;;;;2.88;0.90;;;20.70;47.00;;;;;;4994011;28;20081;-61
2022/03/14 07:24:58;;;;;;;3.97;1.10;;;20.70;47.70;;;;;;4993281;28;20054;-61
2022/03/14 07:27:23;;;;;;;1.73;0.90;;;20.70;47.00;;;;;;4993577;28;20569;-60
2022/03/14 07:29:49;;;;;;;3.45;0.95;;;20.70;47.10;;;;;;4993230;28;20046;-61
2022/03/14 07:32:14;;;;;;;2.50;0.85;;;20.80;47.50;;;;;;5001109;28;20080;-60
2022/03/14 07:34:40;;;;;;;2.92;0.93;;;20.80;47.60;;;;;;5012966;28;20046;-60
2022/03/14 07:37:05;;;;;;;2.65;0.98;;;20.80;47.80;;;;;;5012398;28;20482;-60
2022/03/14 07:39:31;;;;;;;2.83;1.10;;;20.80;47.90;;;;;;5013115;28;20061;-60
2022/03/14 07:41:57;;;;;;;4.70;1.05;;;20.80;48.10;;;;;;5013297;28;20058;-60
2022/03/14 07:44:22;;;;;;;3.97;1.00;;;20.90;48.30;;;;;;5012048;28;20554;-60
2022/03/14 07:46:48;;;;;;;2.20;0.88;;;20.90;48.40;;;;;;5013012;28;20042;-60
2022/03/14 07:49:14;;;;;;;3.15;0.88;;;20.90;48.50;;;;;;5012684;28;20045;-60
2022/03/14 07:51:40;;;;;;;3.47;1.10;;;20.90;48.50;;;;;;5012431;28;20045;-60
2022/03/14 07:54:06;;;;;;;2.20;1.00;;;20.90;48.60;;;;;;5012988;28;20500;-60
2022/03/14 07:56:31;;;;;;;4.43;0.98;;;20.90;48.70;;;;;;5012890;28;20038;-61
2022/03/14 07:58:57;;;;;;;4.25;1.08;;;20.90;48.70;;;;;;5012273;28;20050;-59
2022/03/14 08:01:22;;;;;;;2.92;1.13;;;20.90;48.60;;;;;;5012568;28;20073;-60
2022/03/14 08:03:48;;;;;;;4.07;1.00;;;20.90;48.50;;;;;;5012162;28;20397;-60
2022/03/14 08:06:19;;;;;;;5.68;1.08;;;21.00;48.60;;;;;;5011953;28;20038;-60
2022/03/14 08:08:45;;;;;;;4.75;1.23;;;21.00;48.70;;;;;;5012924;28;20456;-60
2022/03/14 08:11:11;;;;;;;3.00;0.90;;;21.00;48.80;;;;;;5012491;28;20037;-60
2022/03/14 08:13:37;;;;;;;2.95;1.20;;;21.00;48.80;;;;;;5011996;28;20485;-61
2022/03/14 08:16:03;;;;;;;3.78;1.00;;;21.00;48.90;;;;;;5012933;28;20046;-61
2022/03/14 08:18:29;;;;;;;1.92;0.80;;;21.00;48.90;;;;;;5012464;28;20048;-60
2022/03/14 08:20:57;;;;;;;5.18;0.90;;;21.00;49.00;;;;;;5012310;28;20042;-60
2022/03/14 08:23:22;;;;;;;;;;;21.00;49.10;;;;;;5013029;28;20064;-61
2022/03/14 08:25:48;;;;;;;3.70;0.93;;;21.00;49.10;;;;;;5011379;28;19922;-61
2022/03/14 08:28:13;;;;;;;2.15;0.80;;;21.00;49.00;;;;;;5011550;28;20034;-59
2022/03/14 08:30:39;;;;;;;4.70;1.00;;;21.00;49.00;;;;;;5012413;28;20512;-61
2022/03/14 08:33:05;;;;;;;2.53;0.88;;;21.00;49.10;;;;;;5011296;28;20050;-61
2022/03/14 08:35:30;;;;;;;4.03;0.90;;;21.00;49.10;;;;;;5027104;28;20053;-61
2022/03/14 08:37:56;;;;;;;3.67;0.93;;;21.10;49.30;;;;;;5012172;28;20046;-64
2022/03/14 08:40:23;;;;;;;2.15;0.90;;;21.10;49.30;;;;;;5010845;28;20054;-61
2022/03/14 08:42:49;;;;;;;6.05;1.10;;;21.10;49.30;;;;;;5003445;28;20047;-61
2022/03/14 08:45:15;;;;;;;5.53;1.13;;;21.10;49.30;;;;;;4991596;28;20061;-61
2022/03/14 08:47:41;;;;;;;2.75;0.90;;;21.10;49.30;;;;;;4990819;28;20486;-60
2022/03/14 08:50:07;;;;;;;4.13;1.10;;;21.10;49.40;;;;;;4992270;28;20049;-60
2022/03/14 08:52:36;;;;;;;3.25;0.90;;;21.10;49.40;;;;;;5011495;28;20152;-60
2022/03/14 08:55:02;;;;;;;7.07;1.00;;;21.10;49.50;;;;;;5011527;28;20057;-60
2022/03/14 08:57:28;;;;;;;4.47;0.90;;;21.10;49.60;;;;;;5012072;28;20045;-61
2022/03/14 08:59:54;;;;;;;4.57;1.15;;;21.20;49.70;;;;;;5002327;28;20034;-61
2022/03/14 09:02:20;;;;;;;2.55;0.80;;;21.10;49.70;;;;;;4991140;28;20046;-61
2022/03/14 09:04:45;;;;;;;2.55;0.70;;;21.20;49.80;;;;;;4992497;28;20104;-61
2022/03/14 09:07:11;;;;;;;3.42;1.00;;;21.20;49.80;;;;;;4979486;28;20050;-61
2022/03/14 09:09:37;;;;;;;1.95;0.73;;;21.20;49.80;;;;;;4972481;28;20039;-60
2022/03/14 09:12:03;;;;;;;2.85;0.80;;;21.20;49.70;;;;;;4977006;28;20059;-64
2022/03/14 09:14:31;;;;;;;3.03;1.05;;;21.20;49.80;;;;;;4990838;28;20042;-64
2022/03/14 09:16:57;;;;;;;4.32;0.80;;;21.20;50.30;;;;;;4993723;28;20098;-61
2022/03/14 09:19:22;;;;;;;1.92;1.08;;;21.20;49.80;;;;;;4996180;28;20061;-61
2022/03/14 09:21:48;;;;;;;2.47;0.90;;;21.20;49.80;;;;;;4995272;28;20034;-62
2022/03/14 09:24:13;;;;;;;2.95;0.95;;;21.20;49.80;;;;;;4993319;28;20107;-62
2022/03/14 09:26:39;;;;;;;3.45;1.02;;;21.20;49.70;;;;;;4995391;28;20043;-62
2022/03/14 09:29:06;;;;;;;2.08;0.55;;;21.20;49.60;;;;;;4994932;28;20050;-62
2022/03/14 09:31:31;;;;;;;3.05;1.00;;;21.20;49.60;;;;;;4995327;28;20081;-62
2022/03/14 09:33:58;;;;;;;1.85;0.90;;;21.20;49.60;;;;;;4995240;28;20554;-62
2022/03/14 09:36:24;;;;;;;1.30;0.80;;;21.20;49.60;;;;;;4995406;28;20065;-62
2022/03/14 09:38:49;;;;;;;1.65;0.80;;;21.20;49.60;;;;;;4995692;28;20494;-62
2022/03/14 09:41:18;;;;;;;2.42;0.90;;;21.30;49.60;;;;;;4994893;28;20085;-61
2022/03/14 09:43:46;;;;;;;2.30;0.90;;;21.20;49.60;;;;;;4993982;28;20043;-61
2022/03/14 09:46:11;;;;;;;3.15;0.77;;;21.20;49.60;;;;;;4995528;28;20042;-62
2022/03/14 09:48:39;;;;;;;1.85;0.80;;;21.20;49.60;;;;;;4994392;28;20050;-60
2022/03/14 09:51:05;;;;;;;3.03;1.00;;;21.20;49.60;;;;;;4994451;28;20394;-61
2022/03/14 09:53:31;;;;;;;1.60;0.90;;;21.20;49.60;;;;;;4994869;28;20462;-60
2022/03/14 09:55:56;;;;;;;2.25;0.80;;;21.20;49.60;;;;;;5006654;28;20042;-60
2022/03/14 09:58:22;;;;;;;1.30;0.70;;;21.20;49.50;;;;;;5013626;28;20046;-60
2022/03/14 10:00:50;;;;;;;3.75;0.93;;;21.20;49.40;;;;;;5015510;28;20053;-61
2022/03/14 10:03:16;;;;;;;2.45;0.70;;;21.20;49.40;;;;;;5015589;28;20046;-60
2022/03/14 10:05:42;;;;;;;2.38;1.00;;;21.20;49.30;;;;;;5014188;28;20500;-60
2022/03/14 10:08:08;;;;;;;2.22;0.90;;;21.20;49.30;;;;;;5014568;28;20045;-61
2022/03/14 10:10:37;;;;;;;2.10;1.00;;;21.20;49.20;;;;;;5014968;28;20136;-61
2022/03/14 10:13:05;;;;;;;3.92;0.90;;;21.20;49.20;;;;;;5013966;28;20053;-60
2022/03/14 10:15:31;;;;;;;3.42;1.08;;;21.20;49.10;;;;;;5014899;28;20117;-61
2022/03/14 10:17:57;;;;;;;2.17;0.90;;;21.20;49.10;;;;;;5014702;28;20437;-60
2022/03/14 10:20:23;;;;;;;4.57;0.93;;;21.20;49.10;;;;;;5013805;28;20456;-61
2022/03/14 10:22:49;;;;;;;2.95;1.00;;;21.20;49.00;;;;;;5015066;28;20070;-61
2022/03/14 10:25:19;;;;;;;4.32;0.95;;;21.20;49.00;;;;;;5014155;28;20044;-60
2022/03/14 10:27:46;;;;;;;1.45;0.70;;;21.20;49.00;;;;;;5012167;28;20057;-61
2022/03/14 10:30:25;;;;;;;5.25;0.88;;;21.20;48.90;;;;;;4997068;28;20050;-61
2022/03/14 10:32:56;;;;;;;2.22;0.90;;;21.20;49.10;;;;;;4993747;28;20050;-61
2022/03/14 10:35:22;;;;;;;3.38;0.98;;;21.30;49.00;;;;;;4993889;28;20046;-61
2022/03/14 10:37:58;;;;;;;2.90;0.90;;;21.20;48.90;;;;;;4994585;28;20081;-61
2022/03/14 10:40:41;;;;;;;1.48;0.90;;;21.20;48.90;;;;;;4980998;28;20442;-60
2022/03/14 10:43:08;;;;;;;2.95;1.35;;;21.20;48.90;;;;;;4975054;28;20054;-61
2022/03/14 10:45:34;;;;;;;3.08;1.10;;;21.20;48.90;;;;;;4975510;28;20047;-61
2022/03/14 10:48:02;;;;;;;1.85;1.00;;;21.20;48.90;;;;;;5007794;28;20531;-60
2022/03/14 10:50:38;;;;;;;2.28;1.10;;;21.20;48.80;;;;;;4999866;28;20057;-60
2022/03/14 10:53:05;;;;;;;2.47;1.10;;;21.20;48.70;;;;;;4993937;28;20124;-60
2022/03/14 10:55:49;;;;;;;1.40;0.80;;;21.20;48.70;;;;;;4993132;28;20046;-60
2022/03/14 10:58:19;;;;;;;2.35;1.10;;;21.20;48.50;;;;;;4974707;28;20050;-60
2022/03/14 11:00:52;;;;;;;3.83;1.17;;;21.20;48.50;;;;;;4975213;28;20074;-60
2022/03/14 11:03:31;;;;;;;4.35;1.17;;;21.20;48.40;;;;;;4984616;28;20042;-60
2022/03/14 11:06:02;;;;;;;3.67;1.00;;;21.20;48.30;;;;;;4994083;28;20169;-60
2022/03/14 11:08:33;;;;;;;3.28;1.17;;;21.20;48.30;;;;;;4991876;28;20558;-61
2022/03/14 11:11:02;;;;;;;4.65;1.20;;;21.20;48.20;;;;;;4990443;28;20409;-60
2022/03/14 11:13:27;;;;;;;;;;;21.20;48.40;;;;;;4991406;28;20042;-60
2022/03/14 11:15:53;;;;;;;3.85;1.20;;;21.20;48.60;;;;;;4990371;28;19929;-60
2022/03/14 11:18:19;;;;;;;3.00;1.10;;;21.20;49.30;;;;;;4991066;28;20077;-60
2022/03/14 11:20:46;;;;;;;2.65;1.10;;;21.20;48.80;;;;;;4989488;28;20074;-59
2022/03/14 11:23:13;;;;;;;3.17;0.82;;;21.20;48.80;;;;;;4990312;28;20082;-60
2022/03/14 11:25:39;;;;;;;2.60;1.08;;;21.20;48.80;;;;;;4990186;28;20120;-60
2022/03/14 11:28:05;;;;;;;3.40;0.73;;;21.30;48.90;;;;;;4990685;28;20134;-60
2022/03/14 11:30:34;;;;;;;3.53;1.10;;;21.30;48.90;;;;;;4975310;28;20398;-61
2022/03/14 11:33:03;;;;;;;3.30;1.02;;;21.30;48.90;;;;;;4977439;28;20047;-61
2022/03/14 11:35:29;;;;;;;3.50;1.02;;;21.30;48.80;;;;;;4993301;28;20089;-61
2022/03/14 11:37:55;;;;;;;1.85;0.95;;;21.30;48.80;;;;;;4993459;28;20088;-61
2022/03/14 11:40:21;;;;;;;2.05;1.00;;;21.30;48.70;;;;;;4992106;28;20054;-61
2022/03/14 11:42:47;;;;;;;2.92;1.10;;;21.30;48.70;;;;;;4992389;28;20050;-61
2022/03/14 11:45:12;;;;;;;2.92;0.93;;;21.30;48.70;;;;;;5007808;28;20061;-61
2022/03/14 11:47:38;;;;;;;4.80;2.03;;;21.30;48.70;;;;;;4995710;28;20050;-61
2022/03/14 11:50:04;;;;;;;2.25;0.90;;;21.30;48.80;;;;;;5027717;28;20092;-61
2022/03/14 11:52:37;;;;;;;2.30;1.10;;;21.30;48.70;;;;;;5013345;28;20480;-62
2022/03/14 11:55:06;;;;;;;3.80;1.20;;;21.30;48.70;;;;;;5012899;28;20046;-62
2022/03/14 11:57:39;;;;;;;3.10;1.50;;;21.30;48.80;;;;;;5027060;28;20099;-61
2022/03/14 12:00:25;;;;;;;4.03;1.35;;;21.30;48.80;;;;;;5013034;28;20046;-61
2022/03/14 12:02:52;;;;;;;5.68;1.40;;;21.30;48.70;;;;;;4987895;28;20065;-61
2022/03/14 12:05:22;;;;;;;4.80;1.92;;;21.30;48.80;;;;;;4992007;28;20042;-60
2022/03/14 12:07:47;;;;;;;4.00;1.52;;;21.30;49.00;;;;;;4992008;28;20039;-61
2022/03/14 12:10:26;;;;;;;3.13;1.67;;;21.30;49.10;;;;;;4991291;28;20051;-61
2022/03/14 12:12:53;;;;;;;4.97;1.60;;;21.30;49.00;;;;;;4992883;28;20116;-61
2022/03/14 12:15:41;;;;;;;2.90;1.48;;;21.30;49.10;;;;;;4993119;28;20053;-61
2022/03/14 12:18:28;;;;;;;4.22;1.70;;;21.30;49.00;;;;;;4992754;28;20046;-61
2022/03/14 12:21:01;;;;;;;2.90;1.40;;;21.30;49.20;;;;;;4993392;28;20061;-61
2022/03/14 12:23:33;;;;;;;3.10;1.42;;;21.30;49.10;;;;;;4992968;28;20050;-60
2022/03/14 12:26:20;;;;;;;4.13;1.77;;;21.30;49.20;;;;;;5003441;28;20041;-61
2022/03/14 12:28:45;;;;;;;3.65;1.58;;;21.30;49.20;;;;;;5002160;28;20050;-61
2022/03/14 12:31:15;;;;;;;4.32;1.33;;;21.30;49.20;;;;;;5019381;28;20060;-61
2022/03/14 12:33:45;;;;;;;3.13;1.48;;;21.30;49.30;;;;;;4985196;28;20126;-60
2022/03/14 12:36:22;;;;;;;4.13;1.98;;;21.30;49.30;;;;;;4992856;28;20047;-60
2022/03/14 12:39:05;;;;;;;4.43;1.70;;;21.30;49.40;;;;;;4992646;28;20093;-60
2022/03/14 12:41:31;;;;;;;3.58;1.50;;;21.30;49.30;;;;;;4992414;28;20054;-61
2022/03/14 12:43:57;;;;;;;4.43;1.90;;;21.30;49.30;;;;;;4992768;28;20039;-60
2022/03/14 12:46:23;;;;;;;3.15;1.58;;;21.30;49.30;;;;;;4992193;28;20069;-61